Ava, MO (65608)

11:24 AM CST on February 13, 2016 (GMT -0600)
KMOAVA4 | | Change Station
CLOSE
Current Station
Personal Weather Station
Location: Ava, MO
Elevation: 1273 ft
Nearby Weather Stations

Elev 1273 ft 36.96 °N, 92.67 °W | Updated 2 seconds ago

Clear
Clear
29.1 °F
Feels Like 25 °F
N
3.6
Wind Variable Wind from ESE
Gusts 6.3 mph

Today
High -- | Low -- °F
--% Chance of Precip.
Yesterday
High -- | Low -- °F
Precip. -- in
Pressure 30.58 in
Visibility 10.0 miles
Clouds Clear
Windchill 25 °F
Dew Point -7 °F
Humidity 20%
Rainfall 0.00 in
Snow Depth Not available.
7:01 AM 5:48 PM
Waxing Crescent, 32% visible
METAR KBPK 131653Z AUTO 10007KT 10SM CLR M01/M17 A3055 RMK AO2 SLP354 T10111172
Pressure 30.58 in
Visibility 10.0 miles
Clouds Clear
Windchill 25 °F
Dew Point -7 °F
Humidity 20%
Rainfall 0.00 in
Snow Depth Not available.
7:01 AM 5:48 PM
Waxing Crescent, 32% visible
METAR KBPK 131653Z AUTO 10007KT 10SM CLR M01/M17 A3055 RMK AO2 SLP354 T10111172

10-Day Weather Forecast

Almanac

Astronomy

Feb. 13, 2016 Rise Set
Actual Time
Civil Twilight
Nautical Twilight
Astronomical Twilight
Moon
Length of Visible Light
Length of Day
Tomorrow will be .
, % of the Moon is Illuminated

Today's Extremes

State Highs State Lows

Community

WunderPhotos

Upload Photos

1,892,620 photos uploaded!

WunderBlog® & News

Nearby

Air Quality

  Air Quality AQ Index Pollutant
Not available.

Snow Depth

Station Depth Elevation

Earthquake Activity

City Distance Mag. Time & Date
Minimum magnitude displayed is 2.5.

Coastal Water Temperatures

Place Temperature

Stations

Nearby Weather Stations

Station Location Temp. Windchill Dew Point Humidity Wind Precip. Elev Updated Type
                   

Watches & Warnings

There are currently no watches in effect.